createdAt,value
2018-01-08T00:02:04.812Z,22.90
2018-01-08T00:04:32.351Z,22.30
2018-01-08T00:07:00.649Z,23.77
2018-01-08T00:09:28.184Z,23.62
2018-01-08T00:11:56.463Z,22.75
2018-01-08T00:14:24.744Z,23.52
2018-01-08T00:16:53.055Z,23.00
2018-01-08T00:19:20.577Z,22.23
2018-01-08T00:21:48.886Z,22.77
2018-01-08T00:24:16.408Z,23.25
2018-01-08T00:26:44.708Z,23.48
2018-01-08T00:29:12.228Z,25.10
2018-01-08T00:31:39.763Z,23.17
2018-01-08T00:34:07.291Z,21.60
2018-01-08T00:36:34.820Z,23.23
2018-01-08T00:39:02.339Z,21.83
2018-01-08T00:41:29.902Z,22.67
2018-01-08T00:43:57.415Z,23.85
2018-01-08T00:46:25.715Z,22.60
2018-01-08T00:48:53.236Z,23.55
2018-01-08T00:51:20.768Z,22.85
2018-01-08T00:53:48.283Z,21.92
2018-01-08T00:56:15.814Z,24.23
2018-01-08T00:58:43.331Z,21.95
2018-01-08T01:01:10.855Z,23.75
2018-01-08T01:03:39.140Z,24.42
2018-01-08T01:06:06.679Z,24.33
2018-01-08T01:08:34.190Z,24.00
2018-01-08T01:11:01.719Z,25.50
2018-01-08T01:13:29.245Z,23.70
2018-01-08T01:15:56.783Z,24.33
2018-01-08T01:18:24.307Z,25.20
2018-01-08T01:20:51.838Z,23.87
2018-01-08T01:23:19.360Z,24.87
2018-01-08T01:25:46.893Z,25.88
2018-01-08T01:28:14.426Z,25.23
2018-01-08T01:30:42.735Z,24.37
2018-01-08T01:33:10.256Z,24.55
2018-01-08T01:35:37.812Z,26.67
2018-01-08T01:38:05.341Z,25.25
2018-01-08T01:40:32.870Z,25.58
2018-01-08T01:43:00.392Z,26.33
2018-01-08T01:45:27.920Z,25.30
2018-01-08T01:47:55.444Z,25.70
2018-01-08T01:50:22.992Z,25.70
2018-01-08T01:52:51.292Z,26.60
2018-01-08T01:55:18.844Z,27.13
2018-01-08T01:57:46.368Z,27.40
2018-01-08T02:00:13.893Z,28.17
2018-01-08T02:02:41.419Z,26.80
2018-01-08T02:05:08.976Z,26.50
2018-01-08T02:07:37.268Z,27.87
2018-01-08T02:10:04.797Z,28.85
2018-01-08T02:12:33.122Z,27.58
2018-01-08T02:15:00.648Z,26.87
2018-01-08T02:17:28.192Z,27.98
2018-01-08T02:19:55.737Z,28.48
2018-01-08T02:22:23.279Z,28.75
2018-01-08T02:24:50.842Z,28.67
2018-01-08T02:27:18.378Z,29.55
2018-01-08T02:29:45.892Z,29.55
2018-01-08T02:32:14.197Z,27.70
2018-01-08T02:34:41.740Z,28.02
2018-01-08T02:37:09.281Z,25.80
2018-01-08T02:39:36.807Z,27.13
2018-01-08T02:42:04.348Z,27.60
2018-01-08T02:44:31.868Z,28.65
2018-01-08T02:46:59.404Z,26.45
2018-01-08T02:49:26.924Z,28.25
2018-01-08T02:51:54.471Z,28.45
2018-01-08T02:54:22.752Z,26.20
2018-01-08T02:56:51.048Z,27.45
2018-01-08T02:59:18.564Z,27.35
2018-01-08T03:01:46.104Z,27.77
2018-01-08T03:04:13.620Z,27.23
2018-01-08T03:06:41.189Z,27.35
2018-01-08T03:09:08.743Z,27.05
2018-01-08T03:11:39.251Z,25.33
2018-01-08T03:14:06.784Z,26.90
2018-01-08T03:16:34.324Z,26.58
2018-01-08T03:19:01.842Z,26.12
2018-01-08T03:21:29.377Z,26.35
2018-01-08T03:23:56.890Z,26.83
2018-01-08T03:26:24.437Z,23.80
2018-01-08T03:28:51.951Z,26.98
2018-01-08T03:31:19.488Z,25.70
2018-01-08T03:33:47.003Z,25.83
2018-01-08T03:36:14.541Z,25.27
2018-01-08T03:38:42.061Z,25.05
2018-01-08T03:41:09.590Z,27.25
2018-01-08T03:43:37.103Z,28.65
2018-01-08T03:46:04.643Z,26.37
2018-01-08T03:48:32.166Z,27.23
2018-01-08T03:50:59.712Z,27.33
2018-01-08T03:53:28.003Z,26.23
2018-01-08T03:55:55.540Z,25.12
2018-01-08T03:58:25.276Z,27.30
2018-01-08T04:00:52.807Z,27.67
2018-01-08T04:03:20.329Z,25.70
2018-01-08T04:05:47.900Z,26.45
2018-01-08T04:08:15.435Z,27.50
2018-01-08T04:10:42.946Z,26.27
2018-01-08T04:13:10.487Z,26.87
2018-01-08T04:15:38.020Z,23.87
2018-01-08T04:18:05.548Z,25.05
2018-01-08T04:20:33.827Z,27.13
2018-01-08T04:23:02.138Z,25.70
2018-01-08T04:25:30.423Z,24.80
2018-01-08T04:27:57.963Z,24.40
2018-01-08T04:30:25.519Z,23.60
2018-01-08T04:32:53.048Z,23.27
2018-01-08T04:35:21.334Z,24.83
2018-01-08T04:37:49.636Z,23.95
2018-01-08T04:40:17.147Z,24.05
2018-01-08T04:42:44.676Z,23.52
2018-01-08T04:45:12.192Z,23.67
2018-01-08T04:47:40.511Z,23.08
2018-01-08T04:50:08.040Z,23.70
2018-01-08T04:52:36.339Z,24.45
2018-01-08T04:55:03.864Z,21.70
2018-01-08T04:57:32.159Z,24.05
2018-01-08T05:00:00.444Z,24.80
2018-01-08T05:02:28.003Z,22.23
2018-01-08T05:04:56.283Z,23.75
2018-01-08T05:07:23.807Z,24.15
2018-01-08T05:09:51.325Z,24.00
2018-01-08T05:12:18.860Z,23.33
2018-01-08T05:14:46.383Z,25.30
2018-01-08T05:17:13.920Z,22.65
2018-01-08T05:19:41.453Z,22.52
2018-01-08T05:22:08.987Z,22.58
2018-01-08T05:24:37.292Z,22.23
2018-01-08T05:27:04.838Z,22.52
2018-01-08T05:29:32.365Z,23.10
2018-01-08T05:31:59.907Z,24.25
2018-01-08T05:34:27.429Z,23.05
2018-01-08T05:36:54.969Z,24.33
2018-01-08T05:39:23.252Z,22.87
2018-01-08T05:41:50.795Z,25.35
2018-01-08T05:44:19.094Z,25.67
2018-01-08T05:46:46.635Z,22.95
2018-01-08T05:49:14.920Z,24.27
2018-01-08T05:51:43.222Z,23.50
2018-01-08T05:54:11.275Z,23.75
2018-01-08T05:56:39.583Z,24.92
2018-01-08T05:59:07.091Z,22.98
2018-01-08T06:01:34.624Z,22.70
2018-01-08T06:04:02.170Z,24.40
2018-01-08T06:06:29.723Z,23.50
2018-01-08T06:08:58.006Z,21.92
2018-01-08T06:11:25.536Z,21.75
2018-01-08T06:13:53.072Z,24.33
2018-01-08T06:16:20.595Z,22.70
2018-01-08T06:18:48.138Z,20.90
2018-01-08T06:21:15.668Z,22.55
2018-01-08T06:23:43.977Z,20.73
2018-01-08T06:26:11.512Z,19.90
2018-01-08T06:28:39.810Z,22.87
2018-01-08T06:31:07.320Z,21.80
2018-01-08T06:33:34.867Z,19.85
2018-01-08T06:36:02.385Z,20.48
2018-01-08T06:38:29.944Z,20.20
2018-01-08T06:40:57.475Z,22.70
2018-01-08T06:43:25.775Z,20.88
2018-01-08T06:45:53.292Z,21.00
2018-01-08T06:48:20.814Z,21.30
2018-01-08T06:50:48.352Z,22.52
2018-01-08T06:53:15.916Z,19.55
2018-01-08T06:55:43.439Z,19.40
2018-01-08T06:58:10.972Z,19.60
2018-01-08T07:00:38.501Z,19.67
2018-01-08T07:03:06.045Z,21.90
2018-01-08T07:05:34.326Z,20.33
2018-01-08T07:08:02.624Z,20.92
2018-01-08T07:10:49.159Z,20.73
2018-01-08T07:13:16.695Z,21.20
2018-01-08T07:15:44.231Z,19.50
2018-01-08T07:18:12.531Z,21.52
2018-01-08T07:20:40.808Z,21.40
2018-01-08T07:23:08.395Z,20.30
2018-01-08T07:25:36.049Z,21.85
2018-01-08T07:28:03.588Z,21.37
2018-01-08T07:30:31.118Z,21.05
2018-01-08T07:32:59.424Z,22.58
2018-01-08T07:35:26.968Z,19.70
2018-01-08T07:37:54.525Z,20.83
2018-01-08T07:40:22.808Z,21.23
2018-01-08T07:42:50.356Z,20.02
2018-01-08T07:45:18.648Z,19.45
2018-01-08T07:47:46.951Z,19.70
2018-01-08T07:50:14.470Z,20.55
2018-01-08T07:52:42.763Z,21.80
2018-01-08T07:55:10.280Z,19.73
2018-01-08T07:57:37.819Z,19.60
2018-01-08T08:00:05.344Z,20.08
2018-01-08T08:02:32.881Z,19.33
2018-01-08T08:05:00.425Z,19.92
2018-01-08T08:07:27.987Z,21.33
2018-01-08T08:09:55.501Z,21.02
2018-01-08T08:12:23.038Z,20.05
2018-01-08T08:14:51.340Z,20.35
2018-01-08T08:17:18.854Z,20.23
2018-01-08T08:19:46.391Z,20.80
2018-01-08T08:22:13.908Z,18.77
2018-01-08T08:24:41.442Z,18.55
2018-01-08T08:27:08.964Z,17.30
2018-01-08T08:29:36.506Z,18.27
2018-01-08T08:32:04.019Z,19.33
2018-01-08T08:34:31.547Z,17.35
2018-01-08T08:36:59.076Z,17.37
2018-01-08T08:39:26.624Z,18.40
2018-01-08T08:41:54.148Z,18.40
2018-01-08T08:44:21.675Z,16.05
2018-01-08T08:46:49.184Z,18.48
2018-01-08T08:49:17.483Z,15.93
2018-01-08T08:51:45.012Z,17.55
2018-01-08T08:54:12.553Z,15.63
2018-01-08T08:56:40.088Z,17.17
2018-01-08T08:59:07.626Z,15.32
2018-01-08T09:01:35.148Z,15.73
2018-01-08T09:04:02.686Z,19.87
2018-01-08T09:06:30.205Z,24.50
2018-01-08T09:08:58.503Z,24.85
2018-01-08T09:11:26.012Z,19.35
2018-01-08T09:13:53.549Z,20.30
2018-01-08T09:16:21.076Z,18.65
2018-01-08T09:18:48.645Z,17.55
2018-01-08T09:21:16.180Z,17.17
2018-01-08T09:23:44.475Z,15.07
2018-01-08T09:26:12.000Z,17.95
2018-01-08T09:28:40.311Z,16.42
2018-01-08T09:31:07.820Z,16.45
2018-01-08T09:33:41.078Z,15.75
2018-01-08T09:36:08.592Z,16.17
2018-01-08T09:38:36.896Z,16.98
2018-01-08T09:41:04.425Z,15.98
2018-01-08T09:43:31.959Z,15.52
2018-01-08T09:45:59.491Z,16.27
2018-01-08T09:48:27.027Z,15.68
2018-01-08T09:50:55.333Z,15.98
2018-01-08T09:53:22.847Z,16.70
2018-01-08T09:55:50.381Z,14.98
2018-01-08T09:58:17.900Z,15.65
2018-01-08T10:00:45.437Z,14.55
2018-01-08T10:03:25.512Z,15.27
2018-01-08T10:06:04.826Z,15.25
2018-01-08T10:08:44.931Z,13.05
2018-01-08T10:11:24.171Z,15.05
2018-01-08T10:14:03.607Z,15.23
2018-01-08T10:16:42.799Z,14.38
2018-01-08T10:19:13.804Z,14.15
2018-01-08T10:21:44.482Z,14.95
2018-01-08T10:24:12.028Z,13.50
2018-01-08T10:26:40.311Z,13.52
2018-01-08T10:29:08.679Z,13.62
2018-01-08T10:31:36.276Z,14.95
2018-01-08T10:34:03.793Z,14.48
2018-01-08T10:36:31.340Z,14.38
2018-01-08T10:38:58.871Z,14.38
2018-01-08T10:41:32.126Z,13.07
2018-01-08T10:44:05.368Z,13.98
2018-01-08T10:46:38.661Z,15.02
2018-01-08T10:49:11.922Z,13.60
2018-01-08T10:51:40.780Z,14.25
2018-01-08T10:54:08.391Z,14.23
2018-01-08T10:56:35.915Z,13.75
2018-01-08T10:59:04.204Z,14.52
2018-01-08T11:01:37.364Z,13.85
2018-01-08T11:04:04.921Z,13.62
2018-01-08T11:06:33.265Z,12.88
2018-01-08T11:09:00.782Z,13.73
2018-01-08T11:11:29.087Z,13.25
2018-01-08T11:13:56.619Z,11.88
2018-01-08T11:16:24.942Z,13.60
2018-01-08T11:18:52.450Z,13.07
2018-01-08T11:21:20.014Z,12.57
2018-01-08T11:23:48.302Z,12.40
2018-01-08T11:26:16.595Z,13.23
2018-01-08T11:28:44.144Z,12.48
2018-01-08T11:31:12.442Z,12.90
2018-01-08T11:33:39.988Z,13.80
2018-01-08T11:36:07.528Z,12.63
2018-01-08T11:38:35.853Z,12.40
2018-01-08T11:41:03.408Z,12.68
2018-01-08T11:43:30.939Z,12.75
2018-01-08T11:45:59.219Z,12.10
2018-01-08T11:48:27.518Z,11.57
2018-01-08T11:50:55.678Z,11.57
2018-01-08T11:53:23.252Z,12.60
2018-01-08T11:55:50.777Z,12.48
2018-01-08T11:58:18.927Z,12.27
2018-01-08T12:00:46.471Z,13.50
2018-01-08T12:03:14.020Z,11.68
2018-01-08T12:05:41.563Z,11.73
2018-01-08T12:08:09.099Z,11.32
2018-01-08T12:10:37.390Z,12.20
2018-01-08T12:13:04.938Z,12.52
2018-01-08T12:15:32.488Z,12.02
2018-01-08T12:18:00.051Z,12.10
2018-01-08T12:20:28.357Z,11.57
2018-01-08T12:22:56.663Z,11.90
2018-01-08T12:25:24.235Z,11.85
2018-01-08T12:27:52.894Z,11.00
2018-01-08T12:30:21.173Z,11.32
2018-01-08T12:32:48.715Z,12.20
2018-01-08T12:35:16.276Z,10.88
2018-01-08T12:37:44.588Z,11.85
2018-01-08T12:40:12.111Z,11.55
2018-01-08T12:42:41.160Z,11.10
2018-01-08T12:45:08.687Z,12.13
2018-01-08T12:47:36.236Z,10.38
2018-01-08T12:50:03.754Z,10.80
2018-01-08T12:52:31.272Z,9.30
2018-01-08T12:54:58.813Z,10.52
2018-01-08T12:57:27.088Z,11.85
2018-01-08T12:59:55.387Z,11.77
2018-01-08T13:02:22.932Z,10.45
2018-01-08T13:04:50.492Z,11.52
2018-01-08T13:07:18.009Z,12.15
2018-01-08T13:09:45.542Z,10.68
2018-01-08T13:12:13.067Z,10.20
2018-01-08T13:14:41.380Z,10.82
2018-01-08T13:17:08.896Z,9.75
2018-01-08T13:19:37.207Z,9.75
2018-01-08T13:22:04.737Z,10.80
2018-01-08T13:24:32.287Z,10.45
2018-01-08T13:27:00.690Z,9.88
2018-01-08T13:29:28.231Z,10.15
2018-01-08T13:31:56.516Z,10.18
2018-01-08T13:34:24.067Z,9.40
2018-01-08T13:36:52.367Z,9.18
2018-01-08T13:39:19.903Z,10.02
2018-01-08T13:41:48.189Z,9.73
2018-01-08T13:44:15.744Z,10.27
2018-01-08T13:46:44.039Z,10.93
2018-01-08T13:49:17.574Z,9.43
2018-01-08T13:51:45.095Z,10.27
2018-01-08T13:54:12.644Z,9.93
2018-01-08T13:56:40.160Z,10.48
2018-01-08T13:59:07.695Z,9.95
2018-01-08T14:01:35.204Z,10.85
2018-01-08T14:04:02.776Z,9.75
2018-01-08T14:06:30.315Z,9.82
2018-01-08T14:08:57.879Z,9.75
2018-01-08T14:11:25.415Z,8.43
2018-01-08T14:13:52.936Z,9.18
2018-01-08T14:16:20.446Z,9.20
2018-01-08T14:18:48.726Z,8.25
2018-01-08T14:21:16.263Z,9.75
2018-01-08T14:23:43.803Z,10.60
2018-01-08T14:26:11.454Z,9.20
2018-01-08T14:28:39.078Z,9.80
2018-01-08T14:31:06.631Z,10.88
2018-01-08T14:33:34.910Z,11.52
2018-01-08T14:36:02.432Z,12.82
2018-01-08T14:38:29.965Z,11.27
2018-01-08T14:40:57.615Z,10.32
2018-01-08T14:43:25.123Z,9.82
2018-01-08T14:45:52.684Z,10.35
2018-01-08T14:48:20.179Z,9.45
2018-01-08T14:50:47.847Z,9.52
2018-01-08T14:53:15.350Z,9.88
2018-01-08T14:55:42.865Z,9.48
2018-01-08T14:58:10.362Z,8.98
2018-01-08T15:00:37.908Z,9.02
2018-01-08T15:03:05.465Z,8.98
2018-01-08T15:05:33.006Z,10.70
2018-01-08T15:08:00.526Z,10.30
2018-01-08T15:10:28.818Z,9.30
2018-01-08T15:12:57.081Z,9.38
2018-01-08T15:15:24.640Z,8.07
2018-01-08T15:17:52.918Z,9.98
2018-01-08T15:20:21.206Z,9.82
2018-01-08T15:22:50.092Z,9.52
2018-01-08T15:25:18.362Z,9.02
2018-01-08T15:27:46.643Z,10.05
2018-01-08T15:30:14.911Z,9.57
2018-01-08T15:32:42.422Z,8.20
2018-01-08T15:35:09.918Z,9.25
2018-01-08T15:37:37.437Z,9.70
2018-01-08T15:40:04.960Z,11.63
2018-01-08T15:42:33.237Z,10.40
2018-01-08T15:45:01.525Z,9.50
2018-01-08T15:47:29.958Z,9.40
2018-01-08T15:49:57.461Z,9.13
2018-01-08T15:52:25.742Z,8.27
2018-01-08T15:54:53.246Z,9.43
2018-01-08T15:57:20.782Z,9.20
2018-01-08T15:59:48.286Z,8.45
2018-01-08T16:02:15.805Z,9.23
2018-01-08T16:04:43.318Z,10.02
2018-01-08T16:07:11.612Z,10.20
2018-01-08T16:09:39.137Z,10.10
2018-01-08T16:12:06.695Z,10.73
2018-01-08T16:14:34.190Z,10.30
2018-01-08T16:17:01.714Z,11.35
2018-01-08T16:19:29.225Z,11.07
2018-01-08T16:21:56.798Z,9.40
2018-01-08T16:24:24.306Z,9.90
2018-01-08T16:26:52.581Z,10.07
2018-01-08T16:29:20.128Z,10.55
2018-01-08T16:31:47.642Z,10.60
2018-01-08T16:34:15.155Z,10.13
2018-01-08T16:36:43.455Z,9.50
2018-01-08T16:39:11.736Z,8.70
2018-01-08T16:41:39.256Z,9.15
2018-01-08T16:44:06.920Z,11.00
2018-01-08T16:46:34.493Z,9.98
2018-01-08T16:49:02.774Z,9.38
2018-01-08T16:51:30.301Z,10.32
2018-01-08T16:53:57.851Z,9.65
2018-01-08T16:56:25.434Z,8.55
2018-01-08T16:58:52.934Z,8.23
2018-01-08T17:01:20.450Z,9.15
2018-01-08T17:03:55.865Z,8.48
2018-01-08T17:06:23.387Z,9.60
2018-01-08T17:08:51.687Z,9.43
2018-01-08T17:11:19.235Z,9.13
2018-01-08T17:13:46.865Z,8.95
2018-01-08T17:16:14.432Z,9.35
2018-01-08T17:18:42.748Z,9.77
2018-01-08T17:21:10.292Z,9.13
2018-01-08T17:23:37.814Z,9.18
2018-01-08T17:26:05.322Z,8.80
2018-01-08T17:28:32.872Z,8.90
2018-01-08T17:31:00.398Z,9.05
2018-01-08T17:33:27.951Z,8.48
2018-01-08T17:35:55.450Z,8.88
2018-01-08T17:38:22.991Z,8.90
2018-01-08T17:40:51.254Z,9.05
2018-01-08T17:43:18.794Z,9.15
2018-01-08T17:45:46.292Z,8.40
2018-01-08T17:48:30.058Z,9.65
2018-01-08T17:50:57.583Z,9.27
2018-01-08T17:53:25.119Z,9.70
2018-01-08T17:55:52.632Z,8.70
2018-01-08T17:58:20.271Z,9.02
2018-01-08T18:00:48.621Z,9.02
2018-01-08T18:03:16.167Z,9.43
2018-01-08T18:05:43.693Z,9.25
2018-01-08T18:08:11.213Z,9.63
2018-01-08T18:10:38.752Z,9.40
2018-01-08T18:13:06.336Z,9.38
2018-01-08T18:15:34.640Z,8.88
2018-01-08T18:18:02.208Z,9.32
2018-01-08T18:20:29.776Z,9.23
2018-01-08T18:22:57.294Z,8.68
2018-01-08T18:25:25.633Z,9.20
2018-01-08T18:27:53.155Z,9.35
2018-01-08T18:30:20.701Z,10.05
2018-01-08T18:32:49.218Z,9.70
2018-01-08T18:35:16.773Z,10.18
2018-01-08T18:37:44.495Z,9.70
2018-01-08T18:40:12.085Z,10.30
2018-01-08T18:42:39.587Z,9.43
2018-01-08T18:45:07.102Z,8.73
2018-01-08T18:47:34.618Z,9.40
2018-01-08T18:50:02.241Z,11.43
2018-01-08T18:52:30.608Z,11.32
2018-01-08T18:54:58.946Z,10.25
2018-01-08T18:57:26.483Z,11.40
2018-01-08T18:59:54.150Z,11.30
2018-01-08T19:02:22.520Z,10.35
2018-01-08T19:04:50.050Z,11.55
2018-01-08T19:07:17.788Z,11.57
2018-01-08T19:09:45.337Z,10.93
2018-01-08T19:12:13.656Z,12.20
2018-01-08T19:14:41.259Z,11.25
2018-01-08T19:17:08.846Z,13.00
2018-01-08T19:19:37.178Z,11.02
2018-01-08T19:22:04.784Z,10.75
2018-01-08T19:24:32.363Z,11.95
2018-01-08T19:26:59.906Z,11.82
2018-01-08T19:29:27.497Z,11.10
2018-01-08T19:31:55.045Z,11.93
2018-01-08T19:34:22.629Z,11.98
2018-01-08T19:36:50.945Z,13.23
2018-01-08T19:39:18.521Z,13.05
2018-01-08T19:41:46.056Z,12.85
2018-01-08T19:44:14.382Z,12.10
2018-01-08T19:46:42.751Z,13.62
2018-01-08T19:49:10.256Z,11.80
2018-01-08T19:51:37.830Z,13.02
2018-01-08T19:54:05.385Z,12.82
2018-01-08T19:56:33.002Z,13.20
2018-01-08T19:59:00.649Z,13.43
2018-01-08T20:01:28.329Z,12.88
2018-01-08T20:03:55.894Z,13.05
2018-01-08T20:06:24.194Z,12.23
2018-01-08T20:08:51.810Z,13.52
2018-01-08T20:11:20.194Z,12.27
2018-01-08T20:13:47.753Z,13.07
2018-01-08T20:16:15.356Z,13.13
2018-01-08T20:18:43.630Z,11.65
2018-01-08T20:21:11.984Z,13.23
2018-01-08T20:23:39.544Z,12.68
2018-01-08T20:26:07.131Z,12.93
2018-01-08T20:28:34.707Z,12.43
2018-01-08T20:31:03.038Z,13.32
2018-01-08T20:33:30.617Z,13.82
2018-01-08T20:35:58.134Z,12.65
2018-01-08T20:38:26.487Z,14.15
2018-01-08T20:40:54.043Z,13.57
2018-01-08T20:43:22.411Z,13.20
2018-01-08T20:45:50.029Z,13.80
2018-01-08T20:48:17.689Z,13.10
2018-01-08T20:50:45.380Z,12.77
2018-01-08T20:53:13.005Z,12.60
2018-01-08T20:55:41.337Z,12.32
2018-01-08T20:58:08.914Z,13.07
2018-01-08T21:00:36.473Z,12.80
2018-01-08T21:03:04.046Z,12.27
2018-01-08T21:05:32.409Z,13.70
2018-01-08T21:08:00.004Z,12.13
2018-01-08T21:10:28.381Z,12.32
2018-01-08T21:12:56.744Z,13.02
2018-01-08T21:15:24.455Z,12.63
2018-01-08T21:17:52.829Z,14.10
2018-01-08T21:20:20.396Z,12.80
2018-01-08T21:22:47.960Z,12.82
2018-01-08T21:25:15.529Z,12.07
2018-01-08T21:27:43.121Z,12.32
2018-01-08T21:30:10.795Z,12.82
2018-01-08T21:32:38.381Z,12.63
2018-01-08T21:35:06.741Z,12.85
2018-01-08T21:37:34.305Z,12.37
2018-01-08T21:40:01.863Z,12.10
2018-01-08T21:42:29.626Z,12.48
2018-01-08T21:44:57.189Z,11.90
2018-01-08T21:47:25.729Z,12.07
2018-01-08T21:49:53.353Z,13.18
2018-01-08T21:52:21.669Z,12.37
2018-01-08T21:54:49.257Z,12.70
2018-01-08T21:57:16.761Z,12.27
2018-01-08T21:59:44.430Z,11.88
2018-01-08T22:02:12.532Z,12.25
2018-01-08T22:04:40.120Z,11.02
2018-01-08T22:07:07.684Z,12.30
2018-01-08T22:09:35.244Z,11.90
2018-01-08T22:12:02.796Z,11.18
2018-01-08T22:14:30.357Z,11.18
2018-01-08T22:16:57.929Z,11.15
2018-01-08T22:19:25.485Z,10.63
2018-01-08T22:21:53.790Z,9.93
2018-01-08T22:24:21.350Z,10.25
2018-01-08T22:26:49.728Z,10.30
2018-01-08T22:29:18.055Z,10.80
2018-01-08T22:31:45.603Z,10.45
2018-01-08T22:34:13.191Z,10.13
2018-01-08T22:36:40.762Z,11.10
2018-01-08T22:39:08.298Z,11.27
2018-01-08T22:41:35.869Z,10.68
2018-01-08T22:44:03.429Z,10.80
2018-01-08T22:46:30.988Z,11.25
2018-01-08T22:48:58.551Z,11.20
2018-01-08T22:51:26.109Z,10.80
2018-01-08T22:53:53.695Z,10.98
2018-01-08T22:56:21.309Z,11.30
2018-01-08T22:58:48.997Z,10.80
2018-01-08T23:01:16.549Z,11.30
2018-01-08T23:03:44.881Z,11.05
2018-01-08T23:06:12.425Z,10.52
2018-01-08T23:08:39.997Z,10.73
2018-01-08T23:11:07.540Z,10.32
2018-01-08T23:13:35.091Z,11.82
2018-01-08T23:16:02.694Z,10.60
2018-01-08T23:18:30.196Z,11.88
2018-01-08T23:20:57.798Z,10.75
2018-01-08T23:23:25.298Z,10.65
2018-01-08T23:25:52.866Z,11.05
2018-01-08T23:28:21.175Z,11.18
2018-01-08T23:30:49.484Z,11.85
2018-01-08T23:33:16.997Z,11.05
2018-01-08T23:35:44.552Z,11.85
2018-01-08T23:38:12.063Z,11.27
2018-01-08T23:40:40.398Z,11.15
2018-01-08T23:43:07.897Z,10.82
2018-01-08T23:45:36.182Z,10.77
2018-01-08T23:48:03.715Z,12.05
2018-01-08T23:50:31.233Z,12.30
2018-01-08T23:52:58.742Z,10.93
2018-01-08T23:55:26.254Z,10.80
2018-01-08T23:57:53.819Z,11.05
